Time;durP1;ratioP1;P1;durP2;ratioP2;P2;SDS_P1;SDS_P2;PMS_P1;PMS_P2;Temp;Humidity;BMP_temperature;BMP_pressure;BME280_temperature;BME280_humidity;BME280_pressure;Samples;Min_cycle;Max_cycle;Signal;HPM_P1;HPM_P2
2021/09/02 00:01:21;;;;;;;7.30;5.65;;;;;;;;;;1882297;76;21126;-52
2021/09/02 00:03:50;;;;;;;9.43;5.30;;;;;;;;;;1882434;75;21084;-51
2021/09/02 00:06:18;;;;;;;5.60;5.00;;;;;;;;;;1882355;75;21016;-52
2021/09/02 00:08:47;;;;;;;6.53;4.70;;;;;;;;;;1882449;76;21032;-51
2021/09/02 00:11:16;;;;;;;6.25;5.50;;;;;;;;;;1882441;75;21032;-51
2021/09/02 00:13:45;;;;;;;9.73;5.50;;;;;;;;;;1882350;75;21045;-51
2021/09/02 00:16:13;;;;;;;7.22;5.40;;;;;;;;;;1882421;76;21017;-51
2021/09/02 00:18:42;;;;;;;6.20;4.85;;;;;;;;;;1882510;75;21044;-51
2021/09/02 00:21:11;;;;;;;5.92;5.05;;;;;;;;;;1882429;76;21040;-51
2021/09/02 00:23:40;;;;;;;7.10;5.45;;;;;;;;;;1882436;76;21064;-52
2021/09/02 00:26:09;;;;;;;7.70;5.15;;;;;;;;;;1882395;75;21020;-51
2021/09/02 00:28:38;;;;;;;6.90;4.87;;;;;;;;;;1882534;75;21104;-52
2021/09/02 00:31:07;;;;;;;8.20;6.10;;;;;;;;;;1882330;75;21017;-52
2021/09/02 00:33:36;;;;;;;8.00;5.53;;;;;;;;;;1882386;75;21126;-51
2021/09/02 00:36:05;;;;;;;7.87;5.75;;;;;;;;;;1882338;75;21086;-52
2021/09/02 00:38:34;;;;;;;6.78;5.58;;;;;;;;;;1882435;76;21103;-51
2021/09/02 00:41:03;;;;;;;9.48;6.03;;;;;;;;;;1882401;75;21040;-51
2021/09/02 00:43:38;;;;;;;6.25;5.65;;;;;;;;;;1882421;75;21082;-51
2021/09/02 00:46:07;;;;;;;6.22;5.62;;;;;;;;;;1882273;75;21106;-52
2021/09/02 00:48:36;;;;;;;8.00;5.78;;;;;;;;;;1882407;76;21028;-52
2021/09/02 00:51:05;;;;;;;6.85;5.90;;;;;;;;;;1860167;76;21020;-52
2021/09/02 00:53:33;;;;;;;6.33;5.72;;;;;;;;;;1882445;76;21102;-51
2021/09/02 00:56:02;;;;;;;6.53;5.37;;;;;;;;;;1882284;75;21040;-52
2021/09/02 00:58:31;;;;;;;7.55;5.45;;;;;;;;;;1882370;76;21114;-52
2021/09/02 01:01:00;;;;;;;8.45;6.15;;;;;;;;;;1873181;75;21092;-52
2021/09/02 01:03:29;;;;;;;6.47;5.80;;;;;;;;;;1872876;75;21001;-51
2021/09/02 01:05:58;;;;;;;5.70;5.20;;;;;;;;;;1872902;77;21048;-50
2021/09/02 01:08:27;;;;;;;8.55;5.42;;;;;;;;;;1872815;76;21041;-51
2021/09/02 01:10:56;;;;;;;7.80;5.83;;;;;;;;;;1872771;75;21099;-52
2021/09/02 01:13:25;;;;;;;8.38;6.03;;;;;;;;;;1872837;75;21099;-51
2021/09/02 01:15:54;;;;;;;6.75;4.75;;;;;;;;;;1872822;75;21040;-51
2021/09/02 01:18:23;;;;;;;6.42;4.90;;;;;;;;;;1872929;77;21048;-51
2021/09/02 01:20:51;;;;;;;6.65;5.70;;;;;;;;;;1872812;75;21087;-51
2021/09/02 01:23:21;;;;;;;9.58;5.80;;;;;;;;;;1872808;76;21088;-51
2021/09/02 01:25:49;;;;;;;9.55;5.70;;;;;;;;;;1872991;75;21337;-51
2021/09/02 01:28:18;;;;;;;6.78;5.70;;;;;;;;;;1872796;75;21029;-52
2021/09/02 01:30:47;;;;;;;7.87;5.60;;;;;;;;;;1872740;75;21025;-50
2021/09/02 01:33:16;;;;;;;6.00;5.35;;;;;;;;;;1872960;76;21028;-51
2021/09/02 01:35:46;;;;;;;6.75;5.55;;;;;;;;;;1872890;75;21487;-51
2021/09/02 01:38:15;;;;;;;9.18;5.95;;;;;;;;;;1872851;75;21064;-52
2021/09/02 01:40:46;;;;;;;7.53;5.70;;;;;;;;;;1872820;76;21045;-52
2021/09/02 01:43:16;;;;;;;7.00;6.30;;;;;;;;;;1872949;76;21005;-52
2021/09/02 01:45:45;;;;;;;8.38;5.15;;;;;;;;;;1872763;75;21040;-52
2021/09/02 01:48:13;;;;;;;7.10;5.92;;;;;;;;;;1872875;77;21098;-52
2021/09/02 01:50:42;;;;;;;7.80;6.30;;;;;;;;;;1872790;75;21037;-52
2021/09/02 01:53:13;;;;;;;7.35;6.05;;;;;;;;;;1872970;76;21053;-51
2021/09/02 01:55:43;;;;;;;6.35;5.72;;;;;;;;;;1872816;75;21033;-51
2021/09/02 01:58:11;;;;;;;8.55;6.22;;;;;;;;;;1872896;75;21025;-52
2021/09/02 02:00:40;;;;;;;8.58;6.33;;;;;;;;;;1872785;75;21345;-51
2021/09/02 02:03:09;;;;;;;7.58;6.30;;;;;;;;;;1872742;75;21086;-52
2021/09/02 02:05:38;;;;;;;12.00;6.53;;;;;;;;;;1872723;77;21095;-51
2021/09/02 02:08:07;;;;;;;8.08;7.00;;;;;;;;;;1872758;75;21087;-52
2021/09/02 02:10:36;;;;;;;8.20;7.40;;;;;;;;;;1872752;75;21108;-51
2021/09/02 02:13:05;;;;;;;8.45;6.30;;;;;;;;;;1872801;75;21109;-51
2021/09/02 02:15:34;;;;;;;7.58;6.20;;;;;;;;;;1872727;75;21045;-53
2021/09/02 02:18:03;;;;;;;6.90;6.15;;;;;;;;;;1872801;75;21021;-52
2021/09/02 02:20:32;;;;;;;9.03;6.62;;;;;;;;;;1872826;77;21009;-52
2021/09/02 02:23:01;;;;;;;9.88;7.20;;;;;;;;;;1873029;77;21064;-51
2021/09/02 02:25:29;;;;;;;9.90;6.62;;;;;;;;;;1872698;75;21045;-52
2021/09/02 02:27:58;;;;;;;7.75;6.10;;;;;;;;;;1872744;76;21056;-52
2021/09/02 02:30:27;;;;;;;8.08;5.50;;;;;;;;;;1872766;75;21107;-51
2021/09/02 02:32:56;;;;;;;7.00;5.85;;;;;;;;;;1872899;77;21041;-51
2021/09/02 02:35:24;;;;;;;8.20;5.92;;;;;;;;;;1872799;77;21041;-52
2021/09/02 02:37:53;;;;;;;8.18;6.72;;;;;;;;;;1872756;75;21041;-53
2021/09/02 02:40:22;;;;;;;8.63;6.28;;;;;;;;;;1872849;75;21016;-52
2021/09/02 02:42:51;;;;;;;7.45;6.25;;;;;;;;;;1872860;75;21123;-52
2021/09/02 02:45:20;;;;;;;7.70;6.53;;;;;;;;;;1872791;76;21049;-52
2021/09/02 02:47:49;;;;;;;9.65;5.60;;;;;;;;;;1873007;77;21040;-53
2021/09/02 02:50:18;;;;;;;7.37;5.30;;;;;;;;;;1872821;75;21322;-52
2021/09/02 02:52:47;;;;;;;6.92;5.05;;;;;;;;;;1872891;75;21021;-52
2021/09/02 02:55:15;;;;;;;9.73;5.53;;;;;;;;;;1872883;75;21151;-52
2021/09/02 02:57:44;;;;;;;8.65;5.45;;;;;;;;;;1873021;76;21048;-52
2021/09/02 03:00:14;;;;;;;16.23;6.55;;;;;;;;;;1872856;75;21068;-52
2021/09/02 03:02:42;;;;;;;11.70;5.72;;;;;;;;;;1872903;75;21033;-52
2021/09/02 03:05:11;;;;;;;11.45;6.55;;;;;;;;;;1872987;75;21100;-53
2021/09/02 03:07:40;;;;;;;7.42;6.17;;;;;;;;;;1872864;75;21045;-52
2021/09/02 03:10:09;;;;;;;9.10;6.30;;;;;;;;;;1872853;75;21106;-52
2021/09/02 03:12:38;;;;;;;7.75;5.92;;;;;;;;;;1872946;75;21098;-49
2021/09/02 03:15:08;;;;;;;8.18;6.12;;;;;;;;;;1872981;75;21029;-51
2021/09/02 03:17:37;;;;;;;7.37;6.15;;;;;;;;;;1872917;75;21005;-52
2021/09/02 03:20:06;;;;;;;8.23;5.72;;;;;;;;;;1872963;75;21033;-52
2021/09/02 03:22:35;;;;;;;9.88;6.15;;;;;;;;;;1872974;75;21033;-52
2021/09/02 03:25:04;;;;;;;6.83;5.67;;;;;;;;;;1872918;76;21021;-52
2021/09/02 03:27:33;;;;;;;6.78;5.42;;;;;;;;;;1872956;75;21102;-52
2021/09/02 03:30:02;;;;;;;7.33;5.90;;;;;;;;;;1873029;76;21109;-52
2021/09/02 03:32:31;;;;;;;5.90;5.30;;;;;;;;;;1872826;76;21060;-51
2021/09/02 03:35:00;;;;;;;7.60;5.78;;;;;;;;;;1872909;75;21020;-53
2021/09/02 03:37:28;;;;;;;10.20;6.08;;;;;;;;;;1872953;75;21048;-52
2021/09/02 03:39:57;;;;;;;6.35;5.67;;;;;;;;;;1872894;75;21090;-52
2021/09/02 03:42:26;;;;;;;8.73;5.53;;;;;;;;;;1873093;75;21041;-52
2021/09/02 03:44:54;;;;;;;6.08;5.40;;;;;;;;;;1872863;75;21106;-53
2021/09/02 03:47:23;;;;;;;9.85;7.37;;;;;;;;;;1873030;77;21122;-52
2021/09/02 03:49:52;;;;;;;8.08;5.80;;;;;;;;;;1872773;76;21045;-52
2021/09/02 03:52:21;;;;;;;6.15;5.55;;;;;;;;;;1872879;76;21158;-52
2021/09/02 03:54:50;;;;;;;6.37;5.53;;;;;;;;;;1872841;75;21107;-52
2021/09/02 03:57:19;;;;;;;6.75;5.35;;;;;;;;;;1872823;75;21052;-52
2021/09/02 03:59:48;;;;;;;6.53;5.33;;;;;;;;;;1872872;75;21049;-52
2021/09/02 04:02:17;;;;;;;5.80;5.05;;;;;;;;;;1873017;75;21115;-51
2021/09/02 04:04:46;;;;;;;7.28;5.33;;;;;;;;;;1872870;76;21041;-52
2021/09/02 04:07:15;;;;;;;6.08;5.47;;;;;;;;;;1872793;75;21269;-52
2021/09/02 04:09:44;;;;;;;7.58;6.08;;;;;;;;;;1872736;77;21123;-53
2021/09/02 04:12:12;;;;;;;7.87;5.60;;;;;;;;;;1872693;75;21037;-53
2021/09/02 04:14:41;;;;;;;7.05;5.67;;;;;;;;;;1872775;77;21116;-53
2021/09/02 04:17:10;;;;;;;6.20;5.45;;;;;;;;;;1872818;75;21110;-53
2021/09/02 04:19:39;;;;;;;7.70;5.67;;;;;;;;;;1872864;76;21118;-52
2021/09/02 04:22:08;;;;;;;9.53;7.15;;;;;;;;;;1872926;75;21045;-52
2021/09/02 04:24:37;;;;;;;8.75;5.95;;;;;;;;;;1872735;75;21112;-52
2021/09/02 04:27:06;;;;;;;5.35;4.50;;;;;;;;;;1872854;75;21033;-52
2021/09/02 04:29:39;;;;;;;5.85;5.03;;;;;;;;;;1872832;76;21041;-52
2021/09/02 04:32:05;;;;;;;7.60;5.33;;;;;;;;;;1872387;77;21479;-52
2021/09/02 04:34:34;;;;;;;9.85;5.92;;;;;;;;;;1872913;76;21037;-53
2021/09/02 04:37:03;;;;;;;8.03;5.83;;;;;;;;;;1872893;75;21161;-52
2021/09/02 04:39:31;;;;;;;11.97;8.55;;;;;;;;;;1872890;75;21040;-52
2021/09/02 04:42:00;;;;;;;13.83;8.80;;;;;;;;;;1872932;76;21102;-52
2021/09/02 04:44:29;;;;;;;9.95;6.60;;;;;;;;;;1872915;75;21040;-52
2021/09/02 04:46:58;;;;;;;5.80;5.20;;;;;;;;;;1872862;75;21079;-53
2021/09/02 04:49:26;;;;;;;6.08;4.97;;;;;;;;;;1872885;75;21041;-53
2021/09/02 04:51:55;;;;;;;6.92;5.28;;;;;;;;;;1872806;76;21131;-53
2021/09/02 04:54:24;;;;;;;8.90;5.10;;;;;;;;;;1872858;75;21111;-53
2021/09/02 04:56:53;;;;;;;6.33;4.62;;;;;;;;;;1872881;76;21048;-51
2021/09/02 04:59:22;;;;;;;5.85;4.85;;;;;;;;;;1872899;76;21110;-53
2021/09/02 05:01:51;;;;;;;11.15;5.70;;;;;;;;;;1878679;75;21169;-52
2021/09/02 05:04:20;;;;;;;15.88;5.80;;;;;;;;;;1882349;75;21044;-52
2021/09/02 05:06:49;;;;;;;10.35;5.40;;;;;;;;;;1882422;76;21040;-53
2021/09/02 05:09:18;;;;;;;6.55;4.83;;;;;;;;;;1882308;75;21102;-53
2021/09/02 05:11:47;;;;;;;8.60;4.72;;;;;;;;;;1882242;75;21044;-50
2021/09/02 05:14:15;;;;;;;5.80;5.20;;;;;;;;;;1882267;75;21106;-52
2021/09/02 05:16:44;;;;;;;9.00;5.55;;;;;;;;;;1882258;75;21044;-53
2021/09/02 05:19:13;;;;;;;7.53;5.17;;;;;;;;;;1882375;75;21041;-53
2021/09/02 05:21:42;;;;;;;8.33;5.30;;;;;;;;;;1882232;75;21157;-52
2021/09/02 05:24:11;;;;;;;8.50;5.40;;;;;;;;;;1882395;75;21095;-52
2021/09/02 05:26:40;;;;;;;7.90;5.40;;;;;;;;;;1882212;75;21040;-54
2021/09/02 05:29:09;;;;;;;5.72;4.97;;;;;;;;;;1882342;75;21036;-53
2021/09/02 05:31:37;;;;;;;9.28;5.33;;;;;;;;;;1882252;75;21033;-52
2021/09/02 05:34:06;;;;;;;7.10;4.87;;;;;;;;;;1882280;75;21104;-54
2021/09/02 05:36:35;;;;;;;6.17;5.25;;;;;;;;;;1882280;75;21098;-52
2021/09/02 05:39:05;;;;;;;10.05;8.08;;;;;;;;;;1882293;75;21100;-52
2021/09/02 05:41:34;;;;;;;12.15;10.95;;;;;;;;;;1882280;76;21028;-52
2021/09/02 05:44:03;;;;;;;10.93;9.83;;;;;;;;;;1882147;75;21604;-52
2021/09/02 05:46:32;;;;;;;6.97;4.90;;;;;;;;;;1882262;76;21079;-52
2021/09/02 05:49:00;;;;;;;8.13;5.85;;;;;;;;;;1882138;75;21108;-53
2021/09/02 05:51:29;;;;;;;4.90;4.42;;;;;;;;;;1882106;76;21016;-52
2021/09/02 05:53:58;;;;;;;8.25;5.35;;;;;;;;;;1882180;76;21106;-52
2021/09/02 05:56:27;;;;;;;4.75;4.05;;;;;;;;;;1882059;75;21132;-52
2021/09/02 05:58:56;;;;;;;6.45;4.12;;;;;;;;;;1882217;75;21044;-52
2021/09/02 06:01:25;;;;;;;4.42;3.65;;;;;;;;;;1879922;75;21122;-52
2021/09/02 06:03:54;;;;;;;7.62;4.20;;;;;;;;;;1872755;77;21095;-52
2021/09/02 06:06:22;;;;;;;8.40;4.05;;;;;;;;;;1872657;75;21025;-51
2021/09/02 06:08:51;;;;;;;5.95;4.75;;;;;;;;;;1872757;75;21064;-53
2021/09/02 06:11:20;;;;;;;10.32;5.22;;;;;;;;;;1872597;75;21005;-52
2021/09/02 06:13:48;;;;;;;11.85;5.28;;;;;;;;;;1872644;77;21040;-52
2021/09/02 06:16:17;;;;;;;10.38;4.65;;;;;;;;;;1872877;76;21028;-52
2021/09/02 06:18:46;;;;;;;6.78;4.35;;;;;;;;;;1872873;75;21016;-53
2021/09/02 06:21:15;;;;;;;6.87;3.87;;;;;;;;;;1872777;75;21045;-52
2021/09/02 06:23:43;;;;;;;4.58;4.05;;;;;;;;;;1872849;75;21091;-52
2021/09/02 06:26:12;;;;;;;5.12;3.75;;;;;;;;;;1872835;77;21045;-51
2021/09/02 06:28:41;;;;;;;13.62;5.15;;;;;;;;;;1872856;76;21399;-52
2021/09/02 06:31:10;;;;;;;7.00;4.50;;;;;;;;;;1872821;75;21005;-49
2021/09/02 06:33:40;;;;;;;9.43;5.03;;;;;;;;;;1872720;76;21106;-51
2021/09/02 06:36:08;;;;;;;10.40;6.35;;;;;;;;;;1872845;77;21131;-51
2021/09/02 06:38:38;;;;;;;7.60;5.97;;;;;;;;;;1872801;77;21041;-51
2021/09/02 06:41:07;;;;;;;7.15;5.65;;;;;;;;;;1872825;76;21087;-52
2021/09/02 06:43:36;;;;;;;8.70;4.87;;;;;;;;;;1872769;77;21042;-51
2021/09/02 06:46:04;;;;;;;11.18;5.30;;;;;;;;;;1872701;76;21005;-52
2021/09/02 06:48:33;;;;;;;7.60;5.00;;;;;;;;;;1872869;75;21017;-53
2021/09/02 06:51:02;;;;;;;6.65;4.92;;;;;;;;;;1872734;77;21111;-52
2021/09/02 06:53:32;;;;;;;7.95;4.97;;;;;;;;;;1872756;76;21044;-51
2021/09/02 06:56:01;;;;;;;5.30;4.80;;;;;;;;;;1872880;75;21033;-52
2021/09/02 06:58:30;;;;;;;7.75;4.85;;;;;;;;;;1872714;76;21033;-52
2021/09/02 07:00:59;;;;;;;9.58;4.58;;;;;;;;;;1872817;76;21069;-52
2021/09/02 07:03:28;;;;;;;9.15;7.28;;;;;;;;;;1872779;75;21056;-50
2021/09/02 07:05:57;;;;;;;7.12;4.62;;;;;;;;;;1872678;75;21064;-46
2021/09/02 07:08:25;;;;;;;4.83;4.20;;;;;;;;;;1871019;75;21036;-49
2021/09/02 07:10:54;;;;;;;5.78;4.65;;;;;;;;;;1872281;75;21024;-50
2021/09/02 07:13:23;;;;;;;5.47;4.83;;;;;;;;;;1891288;75;21015;-49
2021/09/02 07:15:52;;;;;;;6.83;5.35;;;;;;;;;;1891176;75;21032;-51
2021/09/02 07:18:21;;;;;;;5.17;3.92;;;;;;;;;;1888876;74;21023;-51
2021/09/02 07:20:50;;;;;;;4.90;4.05;;;;;;;;;;1889163;75;21013;-49
2021/09/02 07:23:19;;;;;;;4.30;3.90;;;;;;;;;;1886582;75;20983;-49
2021/09/02 07:25:47;;;;;;;4.70;3.52;;;;;;;;;;1889784;75;21017;-49
2021/09/02 07:28:16;;;;;;;8.28;4.20;;;;;;;;;;1886021;75;21049;-49
2021/09/02 07:30:45;;;;;;;5.90;4.08;;;;;;;;;;1891612;75;21083;-49
2021/09/02 07:33:14;;;;;;;5.72;4.40;;;;;;;;;;1888193;74;21055;-52
2021/09/02 07:35:43;;;;;;;3.85;3.45;;;;;;;;;;1890444;75;21032;-49
2021/09/02 07:38:12;;;;;;;3.72;3.25;;;;;;;;;;1888859;75;21088;-50
2021/09/02 07:40:41;;;;;;;4.67;3.83;;;;;;;;;;1886899;75;21033;-50
2021/09/02 07:43:10;;;;;;;3.70;3.35;;;;;;;;;;1892535;75;21008;-52
2021/09/02 07:45:39;;;;;;;3.47;3.17;;;;;;;;;;1872058;77;21049;-51
2021/09/02 07:48:08;;;;;;;5.92;3.85;;;;;;;;;;1872642;76;21090;-52
2021/09/02 07:50:37;;;;;;;4.00;3.45;;;;;;;;;;1872579;76;21103;-49
2021/09/02 07:53:06;;;;;;;3.87;3.35;;;;;;;;;;1872241;77;21108;-47
2021/09/02 07:55:35;;;;;;;5.50;3.87;;;;;;;;;;1871233;76;21459;-47
2021/09/02 07:58:04;;;;;;;4.35;3.98;;;;;;;;;;1872433;77;21099;-49
2021/09/02 08:00:33;;;;;;;4.55;3.87;;;;;;;;;;1872702;75;21056;-47
2021/09/02 08:03:02;;;;;;;5.17;3.80;;;;;;;;;;1860271;75;21105;-46
2021/09/02 08:05:31;;;;;;;4.47;3.83;;;;;;;;;;1848911;77;21123;-46
2021/09/02 08:08:00;;;;;;;4.10;3.40;;;;;;;;;;1849097;77;21159;-46
2021/09/02 08:10:28;;;;;;;4.10;3.47;;;;;;;;;;1849223;77;21107;-46
2021/09/02 08:12:57;;;;;;;3.25;2.83;;;;;;;;;;1849087;77;21100;-46
2021/09/02 08:15:27;;;;;;;4.92;3.20;;;;;;;;;;1849142;77;21038;-47
2021/09/02 08:17:58;;;;;;;4.20;3.80;;;;;;;;;;1849114;77;21046;-48
2021/09/02 08:20:25;;;;;;;5.53;3.37;;;;;;;;;;1848948;77;21503;-46
2021/09/02 08:22:54;;;;;;;5.40;3.20;;;;;;;;;;1848981;77;21041;-46
2021/09/02 08:25:23;;;;;;;5.60;2.85;;;;;;;;;;1849084;77;21045;-47
2021/09/02 08:27:52;;;;;;;5.37;2.92;;;;;;;;;;1848987;77;21147;-45
2021/09/02 08:30:22;;;;;;;7.75;3.20;;;;;;;;;;1848952;77;21029;-49
2021/09/02 08:32:52;;;;;;;4.03;3.62;;;;;;;;;;1848908;77;21503;-45
2021/09/02 08:35:22;;;;;;;3.17;2.83;;;;;;;;;;1848985;76;21083;-46
2021/09/02 08:37:52;;;;;;;4.12;3.55;;;;;;;;;;1848409;77;21109;-46
2021/09/02 08:40:22;;;;;;;6.03;4.65;;;;;;;;;;1849181;77;21017;-46
2021/09/02 08:42:51;;;;;;;3.25;2.67;;;;;;;;;;1849148;76;21033;-45
2021/09/02 08:45:20;;;;;;;4.97;2.90;;;;;;;;;;1849101;77;21222;-48
2021/09/02 08:47:49;;;;;;;5.35;4.62;;;;;;;;;;1849172;77;21022;-46
2021/09/02 08:50:20;;;;;;;3.22;2.92;;;;;;;;;;1848151;77;21105;-48
2021/09/02 08:52:48;;;;;;;5.20;2.98;;;;;;;;;;1848387;77;21024;-46
2021/09/02 08:55:17;;;;;;;7.37;3.05;;;;;;;;;;1848502;77;21089;-47
2021/09/02 08:57:50;;;;;;;5.72;3.00;;;;;;;;;;1848418;77;21154;-50
2021/09/02 09:00:21;;;;;;;4.13;2.40;;;;;;;;;;1848112;77;21078;-48
2021/09/02 09:02:51;;;;;;;5.17;2.62;;;;;;;;;;1858928;75;21106;-49
2021/09/02 09:05:20;;;;;;;3.42;2.55;;;;;;;;;;1904205;74;21129;-50
2021/09/02 09:07:50;;;;;;;2.37;2.17;;;;;;;;;;1904639;75;21035;-48
2021/09/02 09:10:22;;;;;;;6.33;2.42;;;;;;;;;;1904546;75;21044;-46
2021/09/02 09:12:55;;;;;;;3.30;1.92;;;;;;;;;;1904602;75;21016;-47
2021/09/02 09:15:28;;;;;;;2.42;2.22;;;;;;;;;;1888197;75;21019;-47
2021/09/02 09:17:58;;;;;;;2.25;2.00;;;;;;;;;;1872320;75;21070;-50
2021/09/02 09:20:27;;;;;;;2.87;1.67;;;;;;;;;;1870754;75;21027;-47
2021/09/02 09:22:57;;;;;;;5.58;2.20;;;;;;;;;;1872340;76;21019;-45
2021/09/02 09:25:27;;;;;;;4.80;2.05;;;;;;;;;;1872228;77;21027;-48
2021/09/02 09:27:58;;;;;;;7.95;2.35;;;;;;;;;;1871699;75;21583;-49
2021/09/02 09:30:28;;;;;;;4.17;2.62;;;;;;;;;;1872016;76;20999;-48
2021/09/02 09:33:03;;;;;;;2.60;2.40;;;;;;;;;;1871473;75;21110;-49
2021/09/02 09:35:44;;;;;;;6.75;2.20;;;;;;;;;;1872040;76;21148;-49
2021/09/02 09:38:10;;;;;;;3.70;2.22;;;;;;;;;;1871240;75;21003;-47
2021/09/02 09:40:40;;;;;;;6.75;2.30;;;;;;;;;;1872241;75;21055;-49
2021/09/02 09:43:10;;;;;;;2.55;2.08;;;;;;;;;;1872003;75;21473;-47
2021/09/02 09:45:49;;;;;;;8.23;1.72;;;;;;;;;;1871563;75;21121;-47
2021/09/02 09:48:19;;;;;;;2.00;1.27;;;;;;;;;;1872023;75;21069;-49
2021/09/02 09:50:49;;;;;;;4.70;1.40;;;;;;;;;;1872036;76;21082;-50
2021/09/02 09:53:27;;;;;;;8.40;1.98;;;;;;;;;;1870736;75;21075;-49
2021/09/02 09:55:57;;;;;;;3.20;1.40;;;;;;;;;;1872202;75;21035;-49
2021/09/02 09:58:27;;;;;;;2.22;1.32;;;;;;;;;;1872043;75;21043;-51
2021/09/02 10:00:56;;;;;;;5.03;1.75;;;;;;;;;;1872215;75;21031;-50
2021/09/02 10:03:25;;;;;;;2.08;1.40;;;;;;;;;;1872126;75;21063;-49
2021/09/02 10:05:54;;;;;;;5.03;1.42;;;;;;;;;;1872073;75;21075;-50
2021/09/02 10:08:23;;;;;;;2.65;1.30;;;;;;;;;;1872201;75;21101;-51
2021/09/02 10:10:52;;;;;;;2.42;1.37;;;;;;;;;;1872111;75;21043;-46
2021/09/02 10:13:22;;;;;;;1.30;0.98;;;;;;;;;;1872063;77;21553;-46
2021/09/02 10:15:51;;;;;;;4.17;1.10;;;;;;;;;;1872244;76;21525;-47
2021/09/02 10:18:20;;;;;;;1.75;0.90;;;;;;;;;;1872049;77;21019;-47
2021/09/02 10:20:49;;;;;;;1.37;1.07;;;;;;;;;;1872020;75;21043;-50
2021/09/02 10:23:28;;;;;;;2.77;1.02;;;;;;;;;;1872049;75;21086;-51
2021/09/02 10:25:56;;;;;;;1.65;0.90;;;;;;;;;;1872140;77;21105;-48
2021/09/02 10:28:26;;;;;;;13.62;8.53;;;;;;;;;;1871919;75;21004;-49
2021/09/02 10:30:56;;;;;;;5.40;1.70;;;;;;;;;;1871860;75;21051;-46
2021/09/02 10:33:44;;;;;;;1.45;1.05;;;;;;;;;;1872099;75;21089;-51
2021/09/02 10:36:17;;;;;;;7.92;1.37;;;;;;;;;;1872138;75;21544;-50
2021/09/02 10:38:54;;;;;;;7.60;3.02;;;;;;;;;;1871961;75;21109;-50
2021/09/02 10:41:39;;;;;;;3.37;1.32;;;;;;;;;;1871964;76;21533;-50
2021/09/02 10:44:08;;;;;;;3.87;2.30;;;;;;;;;;1872869;75;21137;-48
2021/09/02 10:46:37;;;;;;;1.90;1.12;;;;;;;;;;1872840;77;21077;-48
2021/09/02 10:49:15;;;;;;;3.90;1.20;;;;;;;;;;1872534;75;21062;-49
2021/09/02 10:51:45;;;;;;;3.50;1.40;;;;;;;;;;1872728;76;21058;-50
2021/09/02 10:54:15;;;;;;;3.02;1.22;;;;;;;;;;1872886;75;21081;-51
2021/09/02 10:56:55;;;;;;;10.15;2.10;;;;;;;;;;1872744;75;21035;-51
2021/09/02 10:59:34;;;;;;;7.17;2.08;;;;;;;;;;1872610;77;21089;-48
2021/09/02 11:02:03;;;;;;;6.22;1.65;;;;;;;;;;1872620;75;21167;-47
2021/09/02 11:04:32;;;;;;;8.35;2.20;;;;;;;;;;1878699;75;21053;-47
2021/09/02 11:07:01;;;;;;;4.15;1.70;;;;;;;;;;1882883;75;21107;-50
2021/09/02 11:09:31;;;;;;;2.35;1.30;;;;;;;;;;1883021;75;21108;-48
2021/09/02 11:12:00;;;;;;;6.20;1.95;;;;;;;;;;1883028;76;21526;-49
2021/09/02 11:14:30;;;;;;;3.85;1.60;;;;;;;;;;1883007;76;21507;-48
2021/09/02 11:16:59;;;;;;;2.83;1.47;;;;;;;;;;1882939;76;21073;-45
2021/09/02 11:19:32;;;;;;;3.50;1.32;;;;;;;;;;1882105;75;21079;-48
2021/09/02 11:22:07;;;;;;;2.60;1.30;;;;;;;;;;1883043;75;21091;-46
2021/09/02 11:24:37;;;;;;;5.03;1.37;;;;;;;;;;1883072;76;21099;-46
2021/09/02 11:27:06;;;;;;;3.22;2.27;;;;;;;;;;1882052;75;21025;-49
2021/09/02 11:29:35;;;;;;;1.90;1.30;;;;;;;;;;1882877;75;21020;-46
2021/09/02 11:32:05;;;;;;;2.40;1.35;;;;;;;;;;1882849;75;21033;-46
2021/09/02 11:34:34;;;;;;;3.67;1.60;;;;;;;;;;1881966;75;21021;-47
2021/09/02 11:37:03;;;;;;;2.98;1.62;;;;;;;;;;1882925;76;21198;-48
2021/09/02 11:39:36;;;;;;;3.17;1.37;;;;;;;;;;1883195;75;21033;-49
2021/09/02 11:42:06;;;;;;;3.77;1.50;;;;;;;;;;1882977;76;21034;-46
2021/09/02 11:44:35;;;;;;;3.87;1.67;;;;;;;;;;1882949;75;21464;-46
2021/09/02 11:47:06;;;;;;;2.60;1.60;;;;;;;;;;1883015;76;21053;-45
2021/09/02 11:49:35;;;;;;;2.70;1.45;;;;;;;;;;1883041;76;21104;-49
2021/09/02 11:52:04;;;;;;;2.60;1.87;;;;;;;;;;1882882;76;21026;-50
2021/09/02 11:54:34;;;;;;;2.02;1.72;;;;;;;;;;1882950;76;21076;-50
2021/09/02 11:57:03;;;;;;;3.77;1.65;;;;;;;;;;1883032;76;21128;-49
2021/09/02 11:59:32;;;;;;;4.10;1.98;;;;;;;;;;1883009;75;21006;-50
2021/09/02 12:02:01;;;;;;;4.05;1.92;;;;;;;;;;1882926;76;21041;-47
2021/09/02 12:04:30;;;;;;;2.52;1.75;;;;;;;;;;1886325;75;21030;-49
2021/09/02 12:07:00;;;;;;;5.55;2.45;;;;;;;;;;1891895;74;21038;-49
2021/09/02 12:09:31;;;;;;;3.45;1.60;;;;;;;;;;1891835;75;21155;-49
2021/09/02 12:11:59;;;;;;;9.13;6.85;;;;;;;;;;1891808;75;21092;-49
2021/09/02 12:14:29;;;;;;;2.40;1.95;;;;;;;;;;1891924;74;21080;-49
2021/09/02 12:17:05;;;;;;;4.20;2.10;;;;;;;;;;1891907;74;21113;-50
2021/09/02 12:19:52;;;;;;;5.17;1.90;;;;;;;;;;1891835;76;21132;-51
2021/09/02 12:22:21;;;;;;;4.67;2.60;;;;;;;;;;1891838;74;21108;-46
2021/09/02 12:24:50;;;;;;;6.40;2.30;;;;;;;;;;1891835;74;21002;-49
2021/09/02 12:27:19;;;;;;;4.10;2.05;;;;;;;;;;1891818;76;21104;-50
2021/09/02 12:29:49;;;;;;;9.18;2.25;;;;;;;;;;1891814;76;21002;-46
2021/09/02 12:32:18;;;;;;;3.42;2.55;;;;;;;;;;1891893;74;21093;-49
2021/09/02 12:34:48;;;;;;;6.03;1.92;;;;;;;;;;1891856;74;21030;-50
2021/09/02 12:37:19;;;;;;;3.30;1.70;;;;;;;;;;1891741;76;21003;-46
2021/09/02 12:39:49;;;;;;;3.62;2.10;;;;;;;;;;1891843;74;21080;-50
2021/09/02 12:42:30;;;;;;;4.20;2.02;;;;;;;;;;1891878;75;21026;-49
2021/09/02 12:45:06;;;;;;;4.60;2.08;;;;;;;;;;1891935;75;21030;-49
2021/09/02 12:47:36;;;;;;;7.12;2.20;;;;;;;;;;1891172;74;21076;-50
2021/09/02 12:50:15;;;;;;;5.42;2.42;;;;;;;;;;1891913;74;21112;-50
2021/09/02 12:52:44;;;;;;;5.92;2.08;;;;;;;;;;1891267;74;21081;-51
2021/09/02 12:55:25;;;;;;;5.97;2.17;;;;;;;;;;1891831;74;21314;-47
2021/09/02 12:57:55;;;;;;;2.67;1.90;;;;;;;;;;1891928;76;21046;-47
2021/09/02 13:00:25;;;;;;;3.67;2.20;;;;;;;;;;1891875;74;21077;-51
2021/09/02 13:02:57;;;;;;;4.72;2.00;;;;;;;;;;1889301;74;21078;-49
2021/09/02 13:05:26;;;;;;;2.15;1.52;;;;;;;;;;1881431;75;21063;-50
2021/09/02 13:07:56;;;;;;;4.37;1.80;;;;;;;;;;1872778;76;21054;-50
2021/09/02 13:10:29;;;;;;;3.65;1.98;;;;;;;;;;1872901;77;20999;-50
2021/09/02 13:12:58;;;;;;;35.68;29.07;;;;;;;;;;1872812;77;21593;-50
2021/09/02 13:15:27;;;;;;;4.00;3.00;;;;;;;;;;1873023;75;21101;-50
2021/09/02 13:17:56;;;;;;;7.37;3.50;;;;;;;;;;1872873;76;21097;-49
2021/09/02 13:20:25;;;;;;;8.33;2.30;;;;;;;;;;1872890;75;21055;-51
2021/09/02 13:22:54;;;;;;;5.05;1.85;;;;;;;;;;1872892;75;21094;-48
2021/09/02 13:25:23;;;;;;;3.67;1.70;;;;;;;;;;1872739;76;21078;-50
2021/09/02 13:27:52;;;;;;;3.90;1.50;;;;;;;;;;1872838;77;21047;-50
2021/09/02 13:30:22;;;;;;;3.05;1.85;;;;;;;;;;1872828;75;21055;-51
2021/09/02 13:32:50;;;;;;;2.58;1.80;;;;;;;;;;1872836;76;21040;-51
2021/09/02 13:35:19;;;;;;;2.58;1.30;;;;;;;;;;1872947;76;21092;-48
2021/09/02 13:37:48;;;;;;;4.78;1.82;;;;;;;;;;1872810;75;21109;-49
2021/09/02 13:40:18;;;;;;;4.67;1.65;;;;;;;;;;1872833;76;21007;-48
2021/09/02 13:42:47;;;;;;;2.20;1.70;;;;;;;;;;1872808;75;21042;-50
2021/09/02 13:45:15;;;;;;;2.25;1.80;;;;;;;;;;1872808;77;21039;-50
2021/09/02 13:47:44;;;;;;;2.67;1.57;;;;;;;;;;1872940;75;21011;-47
2021/09/02 13:50:13;;;;;;;2.87;1.67;;;;;;;;;;1872866;77;21329;-50
2021/09/02 13:52:43;;;;;;;3.52;1.65;;;;;;;;;;1872805;77;21095;-50
2021/09/02 13:55:15;;;;;;;3.50;1.80;;;;;;;;;;1872879;75;21027;-48
2021/09/02 13:57:44;;;;;;;4.22;1.20;;;;;;;;;;1872830;75;21572;-50
2021/09/02 14:00:14;;;;;;;2.55;1.30;;;;;;;;;;1872749;77;21074;-51
2021/09/02 14:02:42;;;;;;;2.70;1.22;;;;;;;;;;1872841;75;21003;-50
2021/09/02 14:05:13;;;;;;;4.83;1.40;;;;;;;;;;1875362;75;21065;-50
2021/09/02 14:07:42;;;;;;;2.70;1.52;;;;;;;;;;1882976;76;21025;-51
2021/09/02 14:10:11;;;;;;;2.15;1.50;;;;;;;;;;1882991;75;21060;-48
2021/09/02 14:12:39;;;;;;;2.65;1.07;;;;;;;;;;1883130;75;21013;-51
2021/09/02 14:15:10;;;;;;;3.70;2.67;;;;;;;;;;1882876;75;21017;-50
2021/09/02 14:17:39;;;;;;;2.98;1.70;;;;;;;;;;1882835;76;20994;-51
2021/09/02 14:20:08;;;;;;;2.87;1.65;;;;;;;;;;1882941;75;21089;-50
2021/09/02 14:22:40;;;;;;;5.45;1.70;;;;;;;;;;1882730;75;21033;-49
2021/09/02 14:25:10;;;;;;;4.97;1.75;;;;;;;;;;1883005;75;21691;-51
2021/09/02 14:27:39;;;;;;;2.22;1.75;;;;;;;;;;1882923;75;21010;-49
2021/09/02 14:30:07;;;;;;;5.47;2.22;;;;;;;;;;1882983;76;21022;-48
2021/09/02 14:32:36;;;;;;;19.23;2.80;;;;;;;;;;1882800;75;21132;-49
2021/09/02 14:35:05;;;;;;;6.45;2.12;;;;;;;;;;1882811;76;21029;-50
2021/09/02 14:37:34;;;;;;;2.27;1.30;;;;;;;;;;1882903;76;21149;-51
2021/09/02 14:40:04;;;;;;;3.85;1.47;;;;;;;;;;1882990;76;20998;-48
2021/09/02 14:42:33;;;;;;;2.17;1.20;;;;;;;;;;1882906;76;20998;-51
2021/09/02 14:45:01;;;;;;;2.17;1.60;;;;;;;;;;1882991;76;21099;-50
2021/09/02 14:47:30;;;;;;;2.00;1.55;;;;;;;;;;1882987;75;21030;-47
2021/09/02 14:50:02;;;;;;;3.50;1.70;;;;;;;;;;1882982;76;21028;-50
2021/09/02 14:52:30;;;;;;;2.25;1.62;;;;;;;;;;1882861;75;21527;-52
2021/09/02 14:54:58;;;;;;;4.70;2.15;;;;;;;;;;1883097;75;21103;-51
2021/09/02 14:57:29;;;;;;;2.77;1.80;;;;;;;;;;1883071;75;21050;-51